createdAt,value
2023-11-07T00:01:57.812Z,9.50
2023-11-07T00:04:27.940Z,8.10
2023-11-07T00:07:02.491Z,10.20
2023-11-07T00:09:32.188Z,8.17
2023-11-07T00:12:01.231Z,8.87
2023-11-07T00:14:31.050Z,6.83
2023-11-07T00:17:02.846Z,7.40
2023-11-07T00:19:32.342Z,8.00
2023-11-07T00:22:08.373Z,6.30
2023-11-07T00:24:39.758Z,5.70
2023-11-07T00:27:09.427Z,5.93
2023-11-07T00:29:40.205Z,7.10
2023-11-07T00:32:20.483Z,8.67
2023-11-07T00:34:51.162Z,8.07
2023-11-07T00:37:27.309Z,4.47
2023-11-07T00:40:01.568Z,4.33
2023-11-07T00:42:38.090Z,4.40
2023-11-07T00:45:10.020Z,7.53
2023-11-07T00:47:38.763Z,4.10
2023-11-07T00:50:12.651Z,6.03
2023-11-07T00:52:43.593Z,5.37
2023-11-07T00:55:21.177Z,5.60
2023-11-07T00:57:50.571Z,4.33
2023-11-07T01:00:27.049Z,5.27
2023-11-07T01:03:08.818Z,4.90
2023-11-07T01:06:45.977Z,4.60
2023-11-07T01:09:14.925Z,4.07
2023-11-07T01:11:45.854Z,6.23
2023-11-07T01:14:17.674Z,6.03
2023-11-07T01:16:52.368Z,3.70
2023-11-07T01:19:29.514Z,5.00
2023-11-07T01:22:00.956Z,4.40
2023-11-07T01:24:30.144Z,5.17
2023-11-07T01:27:00.615Z,7.87
2023-11-07T01:29:39.452Z,5.77
2023-11-07T01:32:09.712Z,5.03
2023-11-07T01:34:40.689Z,5.53
2023-11-07T01:37:09.293Z,7.70
2023-11-07T01:39:41.191Z,6.47
2023-11-07T01:42:13.370Z,6.47
2023-11-07T01:44:53.154Z,5.23
2023-11-07T01:47:29.946Z,6.37
2023-11-07T01:50:42.092Z,6.37
2023-11-07T01:53:24.342Z,7.17
2023-11-07T01:56:05.222Z,7.80
2023-11-07T02:00:00.340Z,6.33
2023-11-07T02:09:11.923Z,7.30
2023-11-07T02:27:36.408Z,7.87
2023-11-07T02:30:17.399Z,5.27
2023-11-07T02:33:13.724Z,5.70
2023-11-07T02:36:34.460Z,5.47
2023-11-07T02:39:45.932Z,4.93
2023-11-07T02:42:28.874Z,6.10
2023-11-07T02:45:17.904Z,4.33
2023-11-07T02:51:24.974Z,4.30
2023-11-07T02:54:11.675Z,6.63
2023-11-07T02:57:42.192Z,5.00
2023-11-07T03:06:49.277Z,4.00
2023-11-07T03:09:31.229Z,4.60
2023-11-07T03:12:19.248Z,4.20
2023-11-07T03:14:54.657Z,8.90
2023-11-07T03:17:49.492Z,5.87
2023-11-07T03:26:36.335Z,4.40
2023-11-07T03:29:08.085Z,7.23
2023-11-07T03:31:48.862Z,4.60
2023-11-07T03:39:26.478Z,4.67
2023-11-07T03:45:50.410Z,3.77
2023-11-07T03:48:25.553Z,4.10
2023-11-07T03:54:25.920Z,6.67
2023-11-07T03:57:21.832Z,6.57
2023-11-07T04:00:16.854Z,5.27
2023-11-07T04:02:53.940Z,7.00
2023-11-07T04:05:31.902Z,6.00
2023-11-07T04:08:28.474Z,6.53
2023-11-07T04:11:14.966Z,8.30
2023-11-07T04:16:47.361Z,7.00
2023-11-07T04:19:23.545Z,6.20
2023-11-07T04:21:51.460Z,8.90
2023-11-07T04:24:45.173Z,8.13
2023-11-07T04:27:29.324Z,6.57
2023-11-07T04:29:58.600Z,7.03
2023-11-07T04:32:36.140Z,9.27
2023-11-07T04:35:24.323Z,5.50
2023-11-07T04:38:23.407Z,7.37
2023-11-07T04:41:04.584Z,7.67
2023-11-07T04:43:47.978Z,5.30
2023-11-07T04:46:36.598Z,5.50
2023-11-07T04:52:27.240Z,6.10
2023-11-07T04:55:12.466Z,7.97
2023-11-07T04:57:41.208Z,6.53
2023-11-07T05:00:22.997Z,6.80
2023-11-07T05:03:03.823Z,5.63
2023-11-07T05:08:36.933Z,4.57
2023-11-07T05:11:36.162Z,5.60
2023-11-07T05:14:35.142Z,5.10
2023-11-07T05:17:20.416Z,6.40
2023-11-07T05:19:52.738Z,6.90
2023-11-07T05:22:39.233Z,4.87
2023-11-07T05:25:16.208Z,5.70
2023-11-07T05:27:53.166Z,6.73
2023-11-07T05:30:52.144Z,7.37
2023-11-07T05:33:39.564Z,5.37
2023-11-07T05:36:26.635Z,5.70
2023-11-07T05:42:19.634Z,9.07
2023-11-07T05:44:54.601Z,7.90
2023-11-07T05:47:58.013Z,5.53
2023-11-07T05:50:48.089Z,5.37
2023-11-07T05:53:35.849Z,6.63
2023-11-07T05:56:10.351Z,5.77
2023-11-07T05:59:07.680Z,8.07
2023-11-07T06:02:01.811Z,7.63
2023-11-07T06:04:38.676Z,8.90
2023-11-07T06:07:32.586Z,7.80
2023-11-07T06:10:55.218Z,10.03
2023-11-07T06:13:43.708Z,5.37
2023-11-07T06:16:45.281Z,7.57
2023-11-07T06:19:24.241Z,8.67
2023-11-07T06:25:15.265Z,5.43
2023-11-07T06:28:17.975Z,6.33
2023-11-07T06:30:48.021Z,6.23
2023-11-07T06:33:36.659Z,6.37
2023-11-07T06:36:19.575Z,6.93
2023-11-07T06:38:57.435Z,7.67
2023-11-07T06:41:45.699Z,6.53
2023-11-07T06:44:52.443Z,5.40
2023-11-07T06:47:44.896Z,8.43
2023-11-07T06:51:01.875Z,7.43
2023-11-07T06:53:46.297Z,9.97
2023-11-07T06:56:32.857Z,10.50
2023-11-07T06:59:49.925Z,8.93
2023-11-07T07:02:26.922Z,8.83
2023-11-07T07:05:20.595Z,10.83
2023-11-07T07:08:05.705Z,9.93
2023-11-07T07:11:03.965Z,9.27
2023-11-07T07:23:21.728Z,7.60
2023-11-07T07:29:18.535Z,7.83
2023-11-07T07:32:29.351Z,6.90
2023-11-07T07:35:22.665Z,6.83
2023-11-07T07:41:28.919Z,5.63
2023-11-07T07:43:59.802Z,6.67
2023-11-07T07:46:33.644Z,7.10
2023-11-07T07:49:04.509Z,5.40
2023-11-07T07:51:37.081Z,6.60
2023-11-07T07:54:27.181Z,7.13
2023-11-07T07:57:05.858Z,5.87
2023-11-07T07:59:45.064Z,6.70
2023-11-07T08:02:15.655Z,6.80
2023-11-07T08:04:48.041Z,5.57
2023-11-07T08:07:19.336Z,6.27
2023-11-07T08:09:48.593Z,5.73
2023-11-07T08:12:21.034Z,7.53
2023-11-07T08:14:52.006Z,6.67
2023-11-07T08:17:41.577Z,8.37
2023-11-07T08:20:16.216Z,6.30
2023-11-07T08:22:54.872Z,6.67
2023-11-07T08:25:29.469Z,5.17
2023-11-07T08:27:59.913Z,6.37
2023-11-07T08:30:36.032Z,6.40
2023-11-07T08:33:14.122Z,6.60
2023-11-07T08:35:43.985Z,5.97
2023-11-07T08:38:13.544Z,8.33
2023-11-07T08:40:45.104Z,6.60
2023-11-07T08:43:14.583Z,6.43
2023-11-07T08:45:42.733Z,7.50
2023-11-07T08:48:14.793Z,4.80
2023-11-07T08:50:43.858Z,6.63
2023-11-07T08:53:14.593Z,6.43
2023-11-07T08:55:45.189Z,8.70
2023-11-07T08:58:16.841Z,6.53
2023-11-07T09:00:47.673Z,5.13
2023-11-07T09:03:19.136Z,7.33
2023-11-07T09:05:46.797Z,5.17
2023-11-07T09:08:25.080Z,4.83
2023-11-07T09:10:59.199Z,4.27
2023-11-07T09:13:30.079Z,4.37
2023-11-07T09:16:04.454Z,4.10
2023-11-07T09:18:33.292Z,3.70
2023-11-07T09:21:02.676Z,3.30
2023-11-07T09:23:34.599Z,2.70
2023-11-07T09:26:04.940Z,2.87
2023-11-07T09:28:35.704Z,2.73
2023-11-07T09:31:14.015Z,3.17
2023-11-07T09:33:42.685Z,3.23
2023-11-07T09:36:11.793Z,3.33
2023-11-07T09:38:49.392Z,2.77
2023-11-07T09:41:24.914Z,2.53
2023-11-07T09:43:54.145Z,4.80
2023-11-07T09:46:33.117Z,3.60
2023-11-07T09:49:09.581Z,1.70
2023-11-07T09:51:40.320Z,3.33
2023-11-07T09:54:32.533Z,1.70
2023-11-07T09:57:10.019Z,1.70
2023-11-07T09:59:54.506Z,5.83
2023-11-07T10:02:43.679Z,3.50
2023-11-07T10:05:37.213Z,1.60
2023-11-07T10:08:11.678Z,3.13
2023-11-07T10:10:41.521Z,2.03
2023-11-07T10:13:24.219Z,1.77
2023-11-07T10:16:18.572Z,1.20
2023-11-07T10:18:50.525Z,2.77
2023-11-07T10:21:43.348Z,2.70
2023-11-07T10:24:18.502Z,2.67
2023-11-07T10:27:06.465Z,1.50
2023-11-07T10:29:46.727Z,1.43
2023-11-07T10:32:30.152Z,1.43
2023-11-07T10:35:07.751Z,1.70
2023-11-07T10:37:38.184Z,1.63
2023-11-07T10:40:09.003Z,0.97
2023-11-07T10:42:49.619Z,1.63
2023-11-07T10:45:30.617Z,1.90
2023-11-07T10:48:10.115Z,0.97
2023-11-07T10:50:51.847Z,1.40
2023-11-07T10:53:31.415Z,1.20
2023-11-07T10:56:03.164Z,1.67
2023-11-07T10:58:40.476Z,2.90
2023-11-07T11:01:16.580Z,1.77
2023-11-07T11:03:54.334Z,1.67
2023-11-07T11:06:32.201Z,2.67
2023-11-07T11:09:14.508Z,2.20
2023-11-07T11:12:03.230Z,1.20
2023-11-07T11:14:32.260Z,1.40
2023-11-07T11:20:55.917Z,2.50
2023-11-07T11:24:38.394Z,1.87
2023-11-07T11:27:50.719Z,4.43
2023-11-07T11:30:32.448Z,1.30
2023-11-07T11:33:18.191Z,1.50
2023-11-07T11:35:55.692Z,1.40
2023-11-07T11:38:43.228Z,1.97
2023-11-07T11:41:16.265Z,1.30
2023-11-07T11:44:28.398Z,1.13
2023-11-07T11:47:01.349Z,2.73
2023-11-07T11:49:44.496Z,2.57
2023-11-07T11:52:39.650Z,1.43
2023-11-07T11:55:16.802Z,1.40
2023-11-07T11:58:28.693Z,1.37
2023-11-07T12:01:31.640Z,2.57
2023-11-07T12:04:28.797Z,1.40
2023-11-07T12:07:28.057Z,2.57
2023-11-07T12:10:03.700Z,3.40
2023-11-07T12:13:08.789Z,1.80
2023-11-07T12:15:47.875Z,1.40
2023-11-07T12:18:43.023Z,2.53
2023-11-07T12:21:13.831Z,1.80
2023-11-07T12:23:49.319Z,1.67
2023-11-07T12:26:25.134Z,1.83
2023-11-07T12:29:02.002Z,1.93
2023-11-07T12:31:39.565Z,1.97
2023-11-07T12:34:42.729Z,1.47
2023-11-07T12:37:28.264Z,1.53
2023-11-07T12:39:59.404Z,1.87
2023-11-07T12:42:29.133Z,2.87
2023-11-07T12:44:56.556Z,2.00
2023-11-07T12:47:26.967Z,2.47
2023-11-07T12:50:00.944Z,2.07
2023-11-07T12:52:30.074Z,2.13
2023-11-07T12:54:59.979Z,3.23
2023-11-07T12:57:41.243Z,1.90
2023-11-07T13:00:18.928Z,3.20
2023-11-07T13:02:49.324Z,2.20
2023-11-07T13:05:24.932Z,2.57
2023-11-07T13:07:56.189Z,2.13
2023-11-07T13:10:23.670Z,3.23
2023-11-07T13:12:56.346Z,3.63
2023-11-07T13:15:26.448Z,3.43
2023-11-07T13:18:05.373Z,2.80
2023-11-07T13:20:36.990Z,3.77
2023-11-07T13:23:15.044Z,1.70
2023-11-07T13:25:45.052Z,1.53
2023-11-07T13:28:26.709Z,1.97
2023-11-07T13:30:57.301Z,2.10
2023-11-07T13:33:47.593Z,4.93
2023-11-07T13:36:19.084Z,2.47
2023-11-07T13:38:49.208Z,2.43
2023-11-07T13:41:18.762Z,3.00
2023-11-07T13:43:50.633Z,3.27
2023-11-07T13:46:22.051Z,2.50
2023-11-07T13:48:52.080Z,2.67
2023-11-07T13:51:32.329Z,2.63
2023-11-07T13:54:05.653Z,3.53
2023-11-07T13:56:37.054Z,2.00
2023-11-07T13:59:08.014Z,2.83
2023-11-07T14:01:39.142Z,3.33
2023-11-07T14:04:10.716Z,3.20
2023-11-07T14:06:42.541Z,5.50
2023-11-07T14:09:12.378Z,2.77
2023-11-07T14:11:47.529Z,4.43
2023-11-07T14:14:20.860Z,5.37
2023-11-07T14:16:54.817Z,4.00
2023-11-07T14:19:29.819Z,4.53
2023-11-07T14:22:06.622Z,3.87
2023-11-07T14:24:48.002Z,2.57
2023-11-07T14:27:25.571Z,3.50
2023-11-07T14:30:08.522Z,4.90
2023-11-07T14:32:44.388Z,6.70
2023-11-07T14:35:18.283Z,2.83
2023-11-07T14:37:47.290Z,2.27
2023-11-07T14:40:17.437Z,3.50
2023-11-07T14:42:48.357Z,2.93
2023-11-07T14:45:23.447Z,4.07
2023-11-07T14:48:04.289Z,5.30
2023-11-07T14:50:37.575Z,5.07
2023-11-07T14:53:07.411Z,3.20
2023-11-07T14:55:39.008Z,3.57
2023-11-07T14:58:11.022Z,4.33
2023-11-07T15:00:47.355Z,4.03
2023-11-07T15:03:16.135Z,3.90
2023-11-07T15:05:59.324Z,2.93
2023-11-07T15:08:29.966Z,4.63
2023-11-07T15:11:01.624Z,3.67
2023-11-07T15:13:31.641Z,3.00
2023-11-07T15:16:02.911Z,5.43
2023-11-07T15:18:35.365Z,3.93
2023-11-07T15:21:06.821Z,2.83
2023-11-07T15:23:39.169Z,4.77
2023-11-07T15:26:13.023Z,7.20
2023-11-07T15:28:50.349Z,3.63
2023-11-07T15:31:21.324Z,4.20
2023-11-07T15:33:57.362Z,5.73
2023-11-07T15:36:33.019Z,4.13
2023-11-07T15:39:01.970Z,3.53
2023-11-07T15:41:31.875Z,2.90
2023-11-07T15:44:00.874Z,3.00
2023-11-07T15:46:28.208Z,4.10
2023-11-07T15:49:02.699Z,4.90
2023-11-07T15:51:43.265Z,18.80
2023-11-07T15:54:17.057Z,25.30
2023-11-07T15:56:51.456Z,8.63
2023-11-07T15:59:21.335Z,10.53
2023-11-07T16:01:51.962Z,10.00
2023-11-07T16:04:26.695Z,4.57
2023-11-07T16:06:55.611Z,4.57
2023-11-07T16:09:33.381Z,4.37
2023-11-07T16:12:03.831Z,7.23
2023-11-07T16:14:36.727Z,5.70
2023-11-07T16:17:06.479Z,7.10
2023-11-07T16:19:36.467Z,6.23
2023-11-07T16:22:13.795Z,4.47
2023-11-07T16:24:42.323Z,4.23
2023-11-07T16:27:12.860Z,4.07
2023-11-07T16:29:47.620Z,5.83
2023-11-07T16:32:18.761Z,12.43
2023-11-07T16:34:48.934Z,8.20
2023-11-07T16:37:19.070Z,4.30
2023-11-07T16:39:56.864Z,5.13
2023-11-07T16:42:29.643Z,5.37
2023-11-07T16:45:01.453Z,5.37
2023-11-07T16:47:32.367Z,4.00
2023-11-07T16:49:59.562Z,3.43
2023-11-07T16:52:28.897Z,4.83
2023-11-07T16:54:56.175Z,5.13
2023-11-07T16:57:35.373Z,7.13
2023-11-07T17:00:06.349Z,7.53
2023-11-07T17:02:36.135Z,6.20
2023-11-07T17:05:08.856Z,6.57
2023-11-07T17:07:38.729Z,3.93
2023-11-07T17:10:08.860Z,5.13
2023-11-07T17:12:41.418Z,7.77
2023-11-07T17:15:16.396Z,7.00
2023-11-07T17:17:47.410Z,3.63
2023-11-07T17:20:18.240Z,6.57
2023-11-07T17:22:49.914Z,3.50
2023-11-07T17:25:17.451Z,5.57
2023-11-07T17:27:49.339Z,5.73
2023-11-07T17:30:27.323Z,4.33
2023-11-07T17:32:58.955Z,3.47
2023-11-07T17:35:30.227Z,3.30
2023-11-07T17:38:03.345Z,6.67
2023-11-07T17:40:34.408Z,4.37
2023-11-07T17:43:03.319Z,3.53
2023-11-07T17:45:39.244Z,4.40
2023-11-07T17:48:11.942Z,5.97
2023-11-07T17:50:46.268Z,6.03
2023-11-07T17:53:16.708Z,6.97
2023-11-07T17:55:46.344Z,14.53
2023-11-07T17:58:24.448Z,8.93
2023-11-07T18:00:53.753Z,7.90
2023-11-07T18:03:30.585Z,7.67
2023-11-07T18:06:05.395Z,8.37
2023-11-07T18:08:39.581Z,7.57
2023-11-07T18:11:08.706Z,6.67
2023-11-07T18:13:38.291Z,6.57
2023-11-07T18:16:13.966Z,6.53
2023-11-07T18:18:57.467Z,6.77
2023-11-07T18:21:29.156Z,6.73
2023-11-07T18:23:59.155Z,9.73
2023-11-07T18:26:32.351Z,5.77
2023-11-07T18:29:00.108Z,4.63
2023-11-07T18:31:30.230Z,3.87
2023-11-07T18:34:08.867Z,4.13
2023-11-07T18:36:44.155Z,5.23
2023-11-07T18:39:14.635Z,3.90
2023-11-07T18:41:45.607Z,4.23
2023-11-07T18:44:15.581Z,3.73
2023-11-07T18:46:46.079Z,4.53
2023-11-07T18:49:19.187Z,3.43
2023-11-07T18:51:54.830Z,5.10
2023-11-07T18:54:23.111Z,10.27
2023-11-07T18:56:59.623Z,8.00
2023-11-07T18:59:36.525Z,7.00
2023-11-07T19:02:09.827Z,4.87
2023-11-07T19:04:40.094Z,4.90
2023-11-07T19:07:17.909Z,6.80
2023-11-07T19:09:47.491Z,8.57
2023-11-07T19:12:20.585Z,7.37
2023-11-07T19:14:51.056Z,6.83
2023-11-07T19:17:20.972Z,6.23
2023-11-07T19:19:54.553Z,8.30
2023-11-07T19:22:23.568Z,8.17
2023-11-07T19:24:53.963Z,7.50
2023-11-07T19:27:23.264Z,10.00
2023-11-07T19:29:54.714Z,8.53
2023-11-07T19:32:23.817Z,8.93
2023-11-07T19:34:53.093Z,7.00
2023-11-07T19:37:27.828Z,12.63
2023-11-07T19:40:01.146Z,8.70
2023-11-07T19:42:31.673Z,8.30
2023-11-07T19:45:02.002Z,6.30
2023-11-07T19:47:41.248Z,7.57
2023-11-07T19:50:14.521Z,7.57
2023-11-07T19:52:42.733Z,6.67
2023-11-07T19:55:12.369Z,11.63
2023-11-07T19:57:47.130Z,8.13
2023-11-07T20:00:21.309Z,7.70
2023-11-07T20:02:50.845Z,9.77
2023-11-07T20:05:25.190Z,7.57
2023-11-07T20:10:49.039Z,5.87
2023-11-07T20:13:26.979Z,3.00
2023-11-07T20:15:55.280Z,3.80
2023-11-07T20:18:31.298Z,2.40
2023-11-07T20:21:01.345Z,4.80
2023-11-07T20:23:38.402Z,2.23
2023-11-07T20:26:08.191Z,5.20
2023-11-07T20:28:39.748Z,2.07
2023-11-07T20:31:08.986Z,2.20
2023-11-07T20:33:44.750Z,2.77
2023-11-07T20:36:20.966Z,2.90
2023-11-07T20:38:57.032Z,3.00
2023-11-07T20:41:27.826Z,2.13
2023-11-07T20:44:06.232Z,2.40
2023-11-07T20:46:39.621Z,4.50
2023-11-07T20:49:12.004Z,2.33
2023-11-07T20:51:45.645Z,2.20
2023-11-07T20:54:22.953Z,1.93
2023-11-07T20:57:00.795Z,2.60
2023-11-07T20:59:39.289Z,3.77
2023-11-07T21:02:08.911Z,2.73
2023-11-07T21:04:46.419Z,1.93
2023-11-07T21:07:15.827Z,3.17
2023-11-07T21:09:46.477Z,4.17
2023-11-07T21:12:15.625Z,1.73
2023-11-07T21:14:45.304Z,2.90
2023-11-07T21:17:22.283Z,2.00
2023-11-07T21:19:59.566Z,2.90
2023-11-07T21:22:28.800Z,2.40
2023-11-07T21:25:07.307Z,3.17
2023-11-07T21:27:42.853Z,4.10
2023-11-07T21:30:18.939Z,3.43
2023-11-07T21:32:50.973Z,2.37
2023-11-07T21:35:23.385Z,2.97
2023-11-07T21:37:54.677Z,2.53
2023-11-07T21:40:25.084Z,2.37
2023-11-07T21:42:55.515Z,2.47
2023-11-07T21:45:29.918Z,1.90
2023-11-07T21:48:06.312Z,3.07
2023-11-07T21:50:39.872Z,4.30
2023-11-07T21:53:09.575Z,2.47
2023-11-07T21:55:47.884Z,2.33
2023-11-07T21:58:21.001Z,3.13
2023-11-07T22:00:50.894Z,3.73
2023-11-07T22:03:19.842Z,3.27
2023-11-07T22:05:48.648Z,3.07
2023-11-07T22:08:25.635Z,2.53
2023-11-07T22:11:00.349Z,1.87
2023-11-07T22:13:35.459Z,3.37
2023-11-07T22:16:04.247Z,2.00
2023-11-07T22:18:35.124Z,1.57
2023-11-07T22:21:07.840Z,1.97
2023-11-07T22:23:35.580Z,1.73
2023-11-07T22:26:11.600Z,1.63
2023-11-07T22:28:42.052Z,1.97
2023-11-07T22:31:26.662Z,1.70
2023-11-07T22:34:01.193Z,1.77
2023-11-07T22:36:41.560Z,3.70
2023-11-07T22:39:19.184Z,1.47
2023-11-07T22:41:51.463Z,1.40
2023-11-07T22:44:25.647Z,1.40
2023-11-07T22:46:54.757Z,1.53
2023-11-07T22:49:31.453Z,1.63
2023-11-07T22:52:12.230Z,2.00
2023-11-07T22:54:42.893Z,1.30
2023-11-07T22:57:13.708Z,2.40
2023-11-07T22:59:42.653Z,1.30
2023-11-07T23:02:15.415Z,1.40
2023-11-07T23:05:05.004Z,1.53
2023-11-07T23:07:35.218Z,1.50
2023-11-07T23:10:04.412Z,1.40
2023-11-07T23:12:36.743Z,1.40
2023-11-07T23:15:12.542Z,1.10
2023-11-07T23:17:42.904Z,1.73
2023-11-07T23:20:20.466Z,1.27
2023-11-07T23:22:55.172Z,2.30
2023-11-07T23:25:27.572Z,1.40
2023-11-07T23:27:57.403Z,1.83
2023-11-07T23:30:26.134Z,1.43
2023-11-07T23:33:00.391Z,2.37
2023-11-07T23:35:34.577Z,1.40
2023-11-07T23:38:05.012Z,1.60
2023-11-07T23:40:38.804Z,1.53
2023-11-07T23:43:08.121Z,1.70
2023-11-07T23:45:39.753Z,1.63
2023-11-07T23:48:11.790Z,1.53
2023-11-07T23:50:44.778Z,1.87
2023-11-07T23:53:14.714Z,1.93
2023-11-07T23:55:44.903Z,2.80
2023-11-07T23:58:20.958Z,1.73
